sensor_id;sensor_type;location;lat;lon;timestamp;temperature;humidity
680;DHT22;322;48.846;9.230;2022-09-12T00:01:07;12.50;99.90
680;DHT22;322;48.846;9.230;2022-09-12T00:03:34;12.40;99.90
680;DHT22;322;48.846;9.230;2022-09-12T00:06:07;12.40;99.90
680;DHT22;322;48.846;9.230;2022-09-12T00:08:34;12.30;99.90
680;DHT22;322;48.846;9.230;2022-09-12T00:11:06;12.30;99.90
680;DHT22;322;48.846;9.230;2022-09-12T00:13:33;12.30;99.90
680;DHT22;322;48.846;9.230;2022-09-12T00:16:00;12.40;99.90
680;DHT22;322;48.846;9.230;2022-09-12T00:18:27;12.30;99.90
680;DHT22;322;48.846;9.230;2022-09-12T00:20:54;12.20;99.90
680;DHT22;322;48.846;9.230;2022-09-12T00:23:21;12.30;99.90
680;DHT22;322;48.846;9.230;2022-09-12T00:25:48;12.30;99.90
680;DHT22;322;48.846;9.230;2022-09-12T00:28:16;12.20;99.90
680;DHT22;322;48.846;9.230;2022-09-12T00:30:44;12.20;99.90
680;DHT22;322;48.846;9.230;2022-09-12T00:33:12;12.20;99.90
680;DHT22;322;48.846;9.230;2022-09-12T00:35:42;12.20;99.90
680;DHT22;322;48.846;9.230;2022-09-12T00:38:09;12.20;99.90
680;DHT22;322;48.846;9.230;2022-09-12T00:40:36;12.20;99.90
680;DHT22;322;48.846;9.230;2022-09-12T00:43:03;12.20;99.90
680;DHT22;322;48.846;9.230;2022-09-12T00:45:31;12.20;99.90
680;DHT22;322;48.846;9.230;2022-09-12T00:48:01;12.10;99.90
680;DHT22;322;48.846;9.230;2022-09-12T00:50:31;12.20;99.90
680;DHT22;322;48.846;9.230;2022-09-12T00:53:02;12.10;99.90
680;DHT22;322;48.846;9.230;2022-09-12T00:55:35;12.20;99.90
680;DHT22;322;48.846;9.230;2022-09-12T00:58:07;12.10;99.90
680;DHT22;322;48.846;9.230;2022-09-12T01:00:36;12.10;99.90
680;DHT22;322;48.846;9.230;2022-09-12T01:03:07;12.00;99.90
680;DHT22;322;48.846;9.230;2022-09-12T01:05:37;12.00;99.90
680;DHT22;322;48.846;9.230;2022-09-12T01:08:08;12.00;99.90
680;DHT22;322;48.846;9.230;2022-09-12T01:10:37;12.10;99.90
680;DHT22;322;48.846;9.230;2022-09-12T01:13:06;12.10;99.90
680;DHT22;322;48.846;9.230;2022-09-12T01:15:37;12.10;99.90
680;DHT22;322;48.846;9.230;2022-09-12T01:18:11;12.00;99.90
680;DHT22;322;48.846;9.230;2022-09-12T01:21:03;12.00;99.90
680;DHT22;322;48.846;9.230;2022-09-12T01:27:07;12.10;99.90
680;DHT22;322;48.846;9.230;2022-09-12T01:29:59;12.10;99.90
680;DHT22;322;48.846;9.230;2022-09-12T01:32:37;12.00;99.90
680;DHT22;322;48.846;9.230;2022-09-12T01:35:13;11.90;99.90
680;DHT22;322;48.846;9.230;2022-09-12T01:37:51;11.90;99.90
680;DHT22;322;48.846;9.230;2022-09-12T01:40:22;11.90;99.90
680;DHT22;322;48.846;9.230;2022-09-12T01:42:59;11.80;99.90
680;DHT22;322;48.846;9.230;2022-09-12T01:45:30;11.80;99.90
680;DHT22;322;48.846;9.230;2022-09-12T01:48:01;11.90;99.90
680;DHT22;322;48.846;9.230;2022-09-12T01:50:34;11.90;99.90
680;DHT22;322;48.846;9.230;2022-09-12T01:53:07;12.00;99.90
680;DHT22;322;48.846;9.230;2022-09-12T01:55:39;12.00;99.90
680;DHT22;322;48.846;9.230;2022-09-12T01:58:10;12.00;99.90
680;DHT22;322;48.846;9.230;2022-09-12T02:00:41;12.00;99.90
680;DHT22;322;48.846;9.230;2022-09-12T02:03:13;11.90;99.90
680;DHT22;322;48.846;9.230;2022-09-12T02:05:45;11.90;99.90
680;DHT22;322;48.846;9.230;2022-09-12T02:08:15;12.00;99.90
680;DHT22;322;48.846;9.230;2022-09-12T02:10:45;12.00;99.90
680;DHT22;322;48.846;9.230;2022-09-12T02:13:17;12.00;99.90
680;DHT22;322;48.846;9.230;2022-09-12T02:15:49;11.90;99.90
680;DHT22;322;48.846;9.230;2022-09-12T02:18:19;11.80;99.90
680;DHT22;322;48.846;9.230;2022-09-12T02:20:48;11.70;99.90
680;DHT22;322;48.846;9.230;2022-09-12T02:23:19;11.70;99.90
680;DHT22;322;48.846;9.230;2022-09-12T02:25:51;11.70;99.90
680;DHT22;322;48.846;9.230;2022-09-12T02:28:22;11.70;99.90
680;DHT22;322;48.846;9.230;2022-09-12T02:30:59;11.70;99.90
680;DHT22;322;48.846;9.230;2022-09-12T02:33:33;11.80;99.90
680;DHT22;322;48.846;9.230;2022-09-12T02:36:09;11.80;99.90
680;DHT22;322;48.846;9.230;2022-09-12T02:38:43;11.60;99.90
680;DHT22;322;48.846;9.230;2022-09-12T02:41:11;11.50;99.90
680;DHT22;322;48.846;9.230;2022-09-12T02:43:39;11.60;99.90
680;DHT22;322;48.846;9.230;2022-09-12T02:46:09;11.60;99.90
680;DHT22;322;48.846;9.230;2022-09-12T02:48:41;11.50;99.90
680;DHT22;322;48.846;9.230;2022-09-12T02:51:09;11.40;99.90
680;DHT22;322;48.846;9.230;2022-09-12T02:53:36;11.50;99.90
680;DHT22;322;48.846;9.230;2022-09-12T02:56:06;11.40;99.90
680;DHT22;322;48.846;9.230;2022-09-12T02:58:33;11.40;99.90
680;DHT22;322;48.846;9.230;2022-09-12T03:01:07;11.40;99.90
680;DHT22;322;48.846;9.230;2022-09-12T03:03:57;11.50;99.90
680;DHT22;322;48.846;9.230;2022-09-12T03:06:34;11.50;99.90
680;DHT22;322;48.846;9.230;2022-09-12T03:09:09;11.40;99.90
680;DHT22;322;48.846;9.230;2022-09-12T03:12:04;11.40;99.90
680;DHT22;322;48.846;9.230;2022-09-12T03:14:51;11.40;99.90
680;DHT22;322;48.846;9.230;2022-09-12T03:17:32;11.30;99.90
680;DHT22;322;48.846;9.230;2022-09-12T03:20:10;11.30;99.90
680;DHT22;322;48.846;9.230;2022-09-12T03:22:48;11.30;99.90
680;DHT22;322;48.846;9.230;2022-09-12T03:25:19;11.30;99.90
680;DHT22;322;48.846;9.230;2022-09-12T03:27:53;11.30;99.90
680;DHT22;322;48.846;9.230;2022-09-12T03:30:21;11.30;99.90
680;DHT22;322;48.846;9.230;2022-09-12T03:32:49;11.30;99.90
680;DHT22;322;48.846;9.230;2022-09-12T03:35:20;11.30;99.90
680;DHT22;322;48.846;9.230;2022-09-12T03:37:48;11.30;99.90
680;DHT22;322;48.846;9.230;2022-09-12T03:40:15;11.30;99.90
680;DHT22;322;48.846;9.230;2022-09-12T03:42:42;11.30;99.90
680;DHT22;322;48.846;9.230;2022-09-12T03:45:10;11.30;99.90
680;DHT22;322;48.846;9.230;2022-09-12T03:47:37;11.20;99.90
680;DHT22;322;48.846;9.230;2022-09-12T03:50:04;11.20;99.90
680;DHT22;322;48.846;9.230;2022-09-12T03:52:33;11.20;99.90
680;DHT22;322;48.846;9.230;2022-09-12T03:55:00;11.20;99.90
680;DHT22;322;48.846;9.230;2022-09-12T03:57:26;11.20;99.90
680;DHT22;322;48.846;9.230;2022-09-12T03:59:53;11.20;99.90
680;DHT22;322;48.846;9.230;2022-09-12T04:02:20;11.20;99.90
680;DHT22;322;48.846;9.230;2022-09-12T04:04:47;11.10;99.90
680;DHT22;322;48.846;9.230;2022-09-12T04:07:14;11.10;99.90
680;DHT22;322;48.846;9.230;2022-09-12T04:09:42;11.10;99.90
680;DHT22;322;48.846;9.230;2022-09-12T04:12:09;11.10;99.90
680;DHT22;322;48.846;9.230;2022-09-12T04:14:35;11.10;99.90
680;DHT22;322;48.846;9.230;2022-09-12T04:17:03;11.10;99.90
680;DHT22;322;48.846;9.230;2022-09-12T04:19:30;11.10;99.90
680;DHT22;322;48.846;9.230;2022-09-12T04:21:56;11.20;99.90
680;DHT22;322;48.846;9.230;2022-09-12T04:24:23;11.10;99.90
680;DHT22;322;48.846;9.230;2022-09-12T04:26:51;11.10;99.90
680;DHT22;322;48.846;9.230;2022-09-12T04:29:18;11.10;99.90
680;DHT22;322;48.846;9.230;2022-09-12T04:31:45;11.00;99.90
680;DHT22;322;48.846;9.230;2022-09-12T04:34:11;11.10;99.90
680;DHT22;322;48.846;9.230;2022-09-12T04:36:39;11.20;99.90
680;DHT22;322;48.846;9.230;2022-09-12T04:39:06;11.20;99.90
680;DHT22;322;48.846;9.230;2022-09-12T04:41:35;11.20;99.90
680;DHT22;322;48.846;9.230;2022-09-12T04:44:05;11.20;99.90
680;DHT22;322;48.846;9.230;2022-09-12T04:46:34;11.10;99.90
680;DHT22;322;48.846;9.230;2022-09-12T04:49:01;11.10;99.90
680;DHT22;322;48.846;9.230;2022-09-12T04:51:29;10.90;99.90
680;DHT22;322;48.846;9.230;2022-09-12T04:53:59;11.00;99.90
680;DHT22;322;48.846;9.230;2022-09-12T04:56:27;11.00;99.90
680;DHT22;322;48.846;9.230;2022-09-12T04:58:56;11.00;99.90
680;DHT22;322;48.846;9.230;2022-09-12T05:01:24;11.00;99.90
680;DHT22;322;48.846;9.230;2022-09-12T05:03:52;11.00;99.90
680;DHT22;322;48.846;9.230;2022-09-12T05:06:21;11.00;99.90
680;DHT22;322;48.846;9.230;2022-09-12T05:08:48;10.80;99.90
680;DHT22;322;48.846;9.230;2022-09-12T05:11:17;10.80;99.90
680;DHT22;322;48.846;9.230;2022-09-12T05:13:45;10.80;99.90
680;DHT22;322;48.846;9.230;2022-09-12T05:16:13;10.80;99.90
680;DHT22;322;48.846;9.230;2022-09-12T05:18:43;10.80;99.90
680;DHT22;322;48.846;9.230;2022-09-12T05:21:12;10.70;99.90
680;DHT22;322;48.846;9.230;2022-09-12T05:23:39;10.70;99.90
680;DHT22;322;48.846;9.230;2022-09-12T05:26:07;10.70;99.90
680;DHT22;322;48.846;9.230;2022-09-12T05:28:36;10.80;99.90
680;DHT22;322;48.846;9.230;2022-09-12T05:31:05;10.80;99.90
680;DHT22;322;48.846;9.230;2022-09-12T05:33:34;10.80;99.90
680;DHT22;322;48.846;9.230;2022-09-12T05:36:04;10.80;99.90
680;DHT22;322;48.846;9.230;2022-09-12T05:38:33;10.80;99.90
680;DHT22;322;48.846;9.230;2022-09-12T05:41:03;10.80;99.90
680;DHT22;322;48.846;9.230;2022-09-12T05:43:31;10.90;99.90
680;DHT22;322;48.846;9.230;2022-09-12T05:46:01;11.00;99.90
680;DHT22;322;48.846;9.230;2022-09-12T05:48:28;11.10;99.90
680;DHT22;322;48.846;9.230;2022-09-12T05:51:00;11.10;99.90
680;DHT22;322;48.846;9.230;2022-09-12T05:53:29;11.20;99.90
680;DHT22;322;48.846;9.230;2022-09-12T05:56:04;11.40;99.90
680;DHT22;322;48.846;9.230;2022-09-12T05:58:32;11.40;99.90
680;DHT22;322;48.846;9.230;2022-09-12T06:01:03;11.50;99.90
680;DHT22;322;48.846;9.230;2022-09-12T06:03:32;11.50;99.90
680;DHT22;322;48.846;9.230;2022-09-12T06:06:01;11.60;99.90
680;DHT22;322;48.846;9.230;2022-09-12T06:08:30;11.70;99.90
680;DHT22;322;48.846;9.230;2022-09-12T06:11:00;11.70;99.90
680;DHT22;322;48.846;9.230;2022-09-12T06:13:27;11.70;99.90
680;DHT22;322;48.846;9.230;2022-09-12T06:16:02;11.70;99.90
680;DHT22;322;48.846;9.230;2022-09-12T06:18:29;11.80;99.90
680;DHT22;322;48.846;9.230;2022-09-12T06:20:56;11.80;99.90
680;DHT22;322;48.846;9.230;2022-09-12T06:23:23;12.00;99.90
680;DHT22;322;48.846;9.230;2022-09-12T06:25:52;12.00;99.90
680;DHT22;322;48.846;9.230;2022-09-12T06:28:19;12.10;99.90
680;DHT22;322;48.846;9.230;2022-09-12T06:30:46;12.10;99.90
680;DHT22;322;48.846;9.230;2022-09-12T06:33:13;12.10;99.90
680;DHT22;322;48.846;9.230;2022-09-12T06:35:40;12.10;99.90
680;DHT22;322;48.846;9.230;2022-09-12T06:38:07;12.10;99.90
680;DHT22;322;48.846;9.230;2022-09-12T06:40:34;12.10;99.90
680;DHT22;322;48.846;9.230;2022-09-12T06:43:10;12.30;99.90
680;DHT22;322;48.846;9.230;2022-09-12T06:45:37;12.40;99.90
680;DHT22;322;48.846;9.230;2022-09-12T06:48:04;12.50;99.90
680;DHT22;322;48.846;9.230;2022-09-12T06:50:31;12.60;99.90
680;DHT22;322;48.846;9.230;2022-09-12T06:52:58;12.60;99.90
680;DHT22;322;48.846;9.230;2022-09-12T06:55:25;12.80;99.90
680;DHT22;322;48.846;9.230;2022-09-12T06:57:53;12.80;99.90
680;DHT22;322;48.846;9.230;2022-09-12T07:00:21;12.90;99.90
680;DHT22;322;48.846;9.230;2022-09-12T07:02:53;13.00;99.90
680;DHT22;322;48.846;9.230;2022-09-12T07:05:20;13.10;99.90
680;DHT22;322;48.846;9.230;2022-09-12T07:07:46;13.20;99.90
680;DHT22;322;48.846;9.230;2022-09-12T07:10:13;13.40;99.90
680;DHT22;322;48.846;9.230;2022-09-12T07:12:40;13.50;99.90
680;DHT22;322;48.846;9.230;2022-09-12T07:15:08;13.60;99.90
680;DHT22;322;48.846;9.230;2022-09-12T07:17:37;13.70;99.90
680;DHT22;322;48.846;9.230;2022-09-12T07:20:04;13.80;99.90
680;DHT22;322;48.846;9.230;2022-09-12T07:22:31;13.90;99.90
680;DHT22;322;48.846;9.230;2022-09-12T07:24:58;14.00;99.90
680;DHT22;322;48.846;9.230;2022-09-12T07:27:25;14.10;99.90
680;DHT22;322;48.846;9.230;2022-09-12T07:29:52;14.20;99.90
680;DHT22;322;48.846;9.230;2022-09-12T07:32:19;14.30;99.90
680;DHT22;322;48.846;9.230;2022-09-12T07:34:48;14.40;99.90
680;DHT22;322;48.846;9.230;2022-09-12T07:37:15;14.50;99.90
680;DHT22;322;48.846;9.230;2022-09-12T07:39:42;14.60;99.90
680;DHT22;322;48.846;9.230;2022-09-12T07:42:09;14.70;99.90
680;DHT22;322;48.846;9.230;2022-09-12T07:44:37;14.80;99.90
680;DHT22;322;48.846;9.230;2022-09-12T07:47:04;14.90;99.90
680;DHT22;322;48.846;9.230;2022-09-12T07:49:30;15.00;99.90
680;DHT22;322;48.846;9.230;2022-09-12T07:51:58;15.10;99.90
680;DHT22;322;48.846;9.230;2022-09-12T07:54:25;15.20;99.90
680;DHT22;322;48.846;9.230;2022-09-12T07:56:52;15.30;99.90
680;DHT22;322;48.846;9.230;2022-09-12T07:59:19;15.40;99.90
680;DHT22;322;48.846;9.230;2022-09-12T08:01:45;15.50;99.90
680;DHT22;322;48.846;9.230;2022-09-12T08:04:12;15.70;99.90
680;DHT22;322;48.846;9.230;2022-09-12T08:06:39;15.70;99.90
680;DHT22;322;48.846;9.230;2022-09-12T08:09:07;15.70;99.90
680;DHT22;322;48.846;9.230;2022-09-12T08:11:36;15.80;99.90
680;DHT22;322;48.846;9.230;2022-09-12T08:14:03;15.90;99.90
680;DHT22;322;48.846;9.230;2022-09-12T08:16:31;16.00;99.90
680;DHT22;322;48.846;9.230;2022-09-12T08:19:00;16.10;99.90
680;DHT22;322;48.846;9.230;2022-09-12T08:21:29;16.30;99.90
680;DHT22;322;48.846;9.230;2022-09-12T08:23:57;16.40;99.90
680;DHT22;322;48.846;9.230;2022-09-12T08:26:26;16.60;99.90
680;DHT22;322;48.846;9.230;2022-09-12T08:28:54;16.80;99.90
680;DHT22;322;48.846;9.230;2022-09-12T08:31:22;16.90;99.90
680;DHT22;322;48.846;9.230;2022-09-12T08:33:49;17.00;99.90
680;DHT22;322;48.846;9.230;2022-09-12T08:36:18;17.20;99.90
680;DHT22;322;48.846;9.230;2022-09-12T08:38:47;17.30;99.90
680;DHT22;322;48.846;9.230;2022-09-12T08:41:28;17.50;99.90
680;DHT22;322;48.846;9.230;2022-09-12T08:44:08;17.70;99.90
680;DHT22;322;48.846;9.230;2022-09-12T08:46:42;17.90;99.90
680;DHT22;322;48.846;9.230;2022-09-12T08:49:21;18.20;99.90
680;DHT22;322;48.846;9.230;2022-09-12T08:51:49;18.40;99.90
680;DHT22;322;48.846;9.230;2022-09-12T08:54:19;18.50;99.90
680;DHT22;322;48.846;9.230;2022-09-12T08:56:48;18.70;99.90
680;DHT22;322;48.846;9.230;2022-09-12T08:59:15;18.80;99.90
680;DHT22;322;48.846;9.230;2022-09-12T09:01:43;19.00;99.90
680;DHT22;322;48.846;9.230;2022-09-12T09:04:23;19.30;99.90
680;DHT22;322;48.846;9.230;2022-09-12T09:07:23;19.50;99.90
680;DHT22;322;48.846;9.230;2022-09-12T09:10:03;19.60;99.90
680;DHT22;322;48.846;9.230;2022-09-12T09:12:39;20.00;99.90
680;DHT22;322;48.846;9.230;2022-09-12T09:15:22;20.50;99.90
680;DHT22;322;48.846;9.230;2022-09-12T09:17:54;21.00;99.90
680;DHT22;322;48.846;9.230;2022-09-12T09:20:27;21.50;99.90
680;DHT22;322;48.846;9.230;2022-09-12T09:22:58;21.80;99.90
680;DHT22;322;48.846;9.230;2022-09-12T09:25:41;22.30;99.90
680;DHT22;322;48.846;9.230;2022-09-12T09:28:16;22.80;99.90
680;DHT22;322;48.846;9.230;2022-09-12T09:30:44;22.80;99.90
680;DHT22;322;48.846;9.230;2022-09-12T09:33:19;22.90;99.90
680;DHT22;322;48.846;9.230;2022-09-12T09:35:49;22.80;99.90
680;DHT22;322;48.846;9.230;2022-09-12T09:38:23;23.10;99.90
680;DHT22;322;48.846;9.230;2022-09-12T09:41:00;23.10;99.90
680;DHT22;322;48.846;9.230;2022-09-12T09:43:32;23.40;99.90
680;DHT22;322;48.846;9.230;2022-09-12T09:45:59;23.70;99.90
680;DHT22;322;48.846;9.230;2022-09-12T09:48:27;24.10;99.90
680;DHT22;322;48.846;9.230;2022-09-12T09:50:57;24.40;99.90
680;DHT22;322;48.846;9.230;2022-09-12T09:53:41;24.50;99.90
680;DHT22;322;48.846;9.230;2022-09-12T09:56:14;24.70;99.90
680;DHT22;322;48.846;9.230;2022-09-12T09:58:45;24.50;99.90
680;DHT22;322;48.846;9.230;2022-09-12T10:01:14;24.70;99.90
680;DHT22;322;48.846;9.230;2022-09-12T10:03:48;25.30;99.90
680;DHT22;322;48.846;9.230;2022-09-12T10:06:30;25.60;99.90
680;DHT22;322;48.846;9.230;2022-09-12T10:09:17;26.00;99.40
680;DHT22;322;48.846;9.230;2022-09-12T10:11:44;26.30;98.50
680;DHT22;322;48.846;9.230;2022-09-12T10:14:27;26.20;99.30
680;DHT22;322;48.846;9.230;2022-09-12T10:16:55;25.90;97.70
680;DHT22;322;48.846;9.230;2022-09-12T10:19:32;25.80;98.00
680;DHT22;322;48.846;9.230;2022-09-12T10:22:00;25.80;98.00
680;DHT22;322;48.846;9.230;2022-09-12T10:24:33;26.20;97.00
680;DHT22;322;48.846;9.230;2022-09-12T10:27:07;26.80;95.50
680;DHT22;322;48.846;9.230;2022-09-12T10:29:40;27.20;92.20
680;DHT22;322;48.846;9.230;2022-09-12T10:32:11;27.50;92.60
680;DHT22;322;48.846;9.230;2022-09-12T10:34:42;27.90;91.60
680;DHT22;322;48.846;9.230;2022-09-12T10:37:17;27.70;92.90
680;DHT22;322;48.846;9.230;2022-09-12T10:39:50;27.60;92.70
680;DHT22;322;48.846;9.230;2022-09-12T10:42:49;28.00;92.40
680;DHT22;322;48.846;9.230;2022-09-12T10:45:36;28.40;90.70
680;DHT22;322;48.846;9.230;2022-09-12T10:48:24;28.70;89.60
680;DHT22;322;48.846;9.230;2022-09-12T10:50:52;29.10;87.30
680;DHT22;322;48.846;9.230;2022-09-12T10:53:21;29.10;85.80
680;DHT22;322;48.846;9.230;2022-09-12T10:56:07;28.60;87.00
680;DHT22;322;48.846;9.230;2022-09-12T10:59:04;28.90;88.60
680;DHT22;322;48.846;9.230;2022-09-12T11:01:39;29.50;86.60
680;DHT22;322;48.846;9.230;2022-09-12T11:04:21;29.90;84.70
680;DHT22;322;48.846;9.230;2022-09-12T11:07:00;30.50;84.10
680;DHT22;322;48.846;9.230;2022-09-12T11:09:36;30.80;80.80
680;DHT22;322;48.846;9.230;2022-09-12T11:12:10;30.40;82.20
680;DHT22;322;48.846;9.230;2022-09-12T11:14:53;30.30;80.40
680;DHT22;322;48.846;9.230;2022-09-12T11:17:32;30.50;80.00
680;DHT22;322;48.846;9.230;2022-09-12T11:20:42;30.70;76.80
680;DHT22;322;48.846;9.230;2022-09-12T11:26:29;30.80;76.60
680;DHT22;322;48.846;9.230;2022-09-12T11:29:05;30.70;75.00
680;DHT22;322;48.846;9.230;2022-09-12T11:31:50;31.10;74.80
680;DHT22;322;48.846;9.230;2022-09-12T11:34:29;31.40;70.60
680;DHT22;322;48.846;9.230;2022-09-12T11:37:12;31.40;68.60
680;DHT22;322;48.846;9.230;2022-09-12T11:39:44;31.30;66.30
680;DHT22;322;48.846;9.230;2022-09-12T11:42:15;31.30;68.30
680;DHT22;322;48.846;9.230;2022-09-12T11:44:45;32.10;72.10
680;DHT22;322;48.846;9.230;2022-09-12T11:47:14;33.20;68.50
680;DHT22;322;48.846;9.230;2022-09-12T11:49:46;33.50;65.60
680;DHT22;322;48.846;9.230;2022-09-12T11:52:15;33.50;62.90
680;DHT22;322;48.846;9.230;2022-09-12T11:54:46;33.10;60.10
680;DHT22;322;48.846;9.230;2022-09-12T11:57:17;33.40;63.20
680;DHT22;322;48.846;9.230;2022-09-12T11:59:50;33.40;61.00
680;DHT22;322;48.846;9.230;2022-09-12T12:02:24;32.70;59.80
680;DHT22;322;48.846;9.230;2022-09-12T12:05:05;32.70;66.50
680;DHT22;322;48.846;9.230;2022-09-12T12:07:44;33.30;61.70
680;DHT22;322;48.846;9.230;2022-09-12T12:10:25;34.60;59.90
680;DHT22;322;48.846;9.230;2022-09-12T12:12:54;34.70;59.20
680;DHT22;322;48.846;9.230;2022-09-12T12:15:23;35.30;58.70
680;DHT22;322;48.846;9.230;2022-09-12T12:18:02;36.00;55.30
680;DHT22;322;48.846;9.230;2022-09-12T12:20:31;36.40;52.90
680;DHT22;322;48.846;9.230;2022-09-12T12:22:59;36.60;53.10
680;DHT22;322;48.846;9.230;2022-09-12T12:25:39;36.40;52.50
680;DHT22;322;48.846;9.230;2022-09-12T12:28:06;36.70;51.50
680;DHT22;322;48.846;9.230;2022-09-12T12:30:59;37.50;49.80
680;DHT22;322;48.846;9.230;2022-09-12T12:33:51;38.30;48.60
680;DHT22;322;48.846;9.230;2022-09-12T12:36:39;38.60;44.40
680;DHT22;322;48.846;9.230;2022-09-12T12:49:01;37.80;47.00
680;DHT22;322;48.846;9.230;2022-09-12T12:51:56;38.00;42.60
680;DHT22;322;48.846;9.230;2022-09-12T12:54:27;37.00;41.90
680;DHT22;322;48.846;9.230;2022-09-12T12:57:03;35.00;45.70
680;DHT22;322;48.846;9.230;2022-09-12T12:59:31;34.90;45.30
680;DHT22;322;48.846;9.230;2022-09-12T13:01:58;35.20;45.90
680;DHT22;322;48.846;9.230;2022-09-12T13:04:28;35.90;45.30
680;DHT22;322;48.846;9.230;2022-09-12T13:06:59;36.50;44.00
680;DHT22;322;48.846;9.230;2022-09-12T13:09:30;36.70;46.20
680;DHT22;322;48.846;9.230;2022-09-12T13:12:01;37.60;44.20
680;DHT22;322;48.846;9.230;2022-09-12T13:14:50;37.90;42.40
680;DHT22;322;48.846;9.230;2022-09-12T13:17:22;38.40;42.30
680;DHT22;322;48.846;9.230;2022-09-12T13:19:51;39.10;41.00
680;DHT22;322;48.846;9.230;2022-09-12T13:22:22;39.80;38.10
680;DHT22;322;48.846;9.230;2022-09-12T13:24:52;38.70;37.90
680;DHT22;322;48.846;9.230;2022-09-12T13:27:21;37.80;38.10
680;DHT22;322;48.846;9.230;2022-09-12T13:29:48;36.50;39.90
680;DHT22;322;48.846;9.230;2022-09-12T13:32:17;36.20;40.20
680;DHT22;322;48.846;9.230;2022-09-12T13:35:01;36.30;39.50
680;DHT22;322;48.846;9.230;2022-09-12T13:37:42;36.60;39.70
680;DHT22;322;48.846;9.230;2022-09-12T13:40:27;36.50;40.40
680;DHT22;322;48.846;9.230;2022-09-12T13:43:08;35.80;39.60
680;DHT22;322;48.846;9.230;2022-09-12T13:45:36;35.90;41.40
680;DHT22;322;48.846;9.230;2022-09-12T13:48:06;36.80;41.00
680;DHT22;322;48.846;9.230;2022-09-12T13:50:39;37.50;37.60
680;DHT22;322;48.846;9.230;2022-09-12T13:53:11;38.50;38.90
680;DHT22;322;48.846;9.230;2022-09-12T13:55:41;39.30;38.70
680;DHT22;322;48.846;9.230;2022-09-12T13:58:16;39.60;35.10
680;DHT22;322;48.846;9.230;2022-09-12T14:00:59;38.20;35.40
680;DHT22;322;48.846;9.230;2022-09-12T14:03:28;37.30;37.80
680;DHT22;322;48.846;9.230;2022-09-12T14:06:12;38.00;37.10
680;DHT22;322;48.846;9.230;2022-09-12T14:08:43;39.00;39.20
680;DHT22;322;48.846;9.230;2022-09-12T14:11:17;39.90;38.20
680;DHT22;322;48.846;9.230;2022-09-12T14:13:46;40.00;35.10
680;DHT22;322;48.846;9.230;2022-09-12T14:16:13;39.40;35.80
680;DHT22;322;48.846;9.230;2022-09-12T14:18:41;39.40;38.30
680;DHT22;322;48.846;9.230;2022-09-12T14:21:25;39.40;34.90
680;DHT22;322;48.846;9.230;2022-09-12T14:23:57;39.30;35.80
680;DHT22;322;48.846;9.230;2022-09-12T14:26:25;39.40;36.80
680;DHT22;322;48.846;9.230;2022-09-12T14:28:53;39.40;37.50
680;DHT22;322;48.846;9.230;2022-09-12T14:31:23;40.10;36.70
680;DHT22;322;48.846;9.230;2022-09-12T14:33:53;40.00;34.70
680;DHT22;322;48.846;9.230;2022-09-12T14:36:23;40.50;35.50
680;DHT22;322;48.846;9.230;2022-09-12T14:38:52;40.80;35.80
680;DHT22;322;48.846;9.230;2022-09-12T14:41:25;41.40;33.80
680;DHT22;322;48.846;9.230;2022-09-12T14:43:54;41.80;33.10
680;DHT22;322;48.846;9.230;2022-09-12T14:46:25;40.90;33.60
680;DHT22;322;48.846;9.230;2022-09-12T14:48:55;39.90;35.60
680;DHT22;322;48.846;9.230;2022-09-12T14:51:25;40.20;36.30
680;DHT22;322;48.846;9.230;2022-09-12T14:53:53;40.90;34.40
680;DHT22;322;48.846;9.230;2022-09-12T14:56:35;41.60;33.30
680;DHT22;322;48.846;9.230;2022-09-12T14:59:23;41.50;33.20
680;DHT22;322;48.846;9.230;2022-09-12T15:02:18;41.50;33.80
680;DHT22;322;48.846;9.230;2022-09-12T15:04:48;41.60;33.50
680;DHT22;322;48.846;9.230;2022-09-12T15:07:23;41.90;33.10
680;DHT22;322;48.846;9.230;2022-09-12T15:09:53;42.20;32.30
680;DHT22;322;48.846;9.230;2022-09-12T15:12:21;42.30;31.10
680;DHT22;322;48.846;9.230;2022-09-12T15:14:48;42.50;32.90
680;DHT22;322;48.846;9.230;2022-09-12T15:17:15;42.60;33.50
680;DHT22;322;48.846;9.230;2022-09-12T15:19:42;42.50;31.10
680;DHT22;322;48.846;9.230;2022-09-12T15:22:09;42.40;32.10
680;DHT22;322;48.846;9.230;2022-09-12T15:24:36;42.10;32.10
680;DHT22;322;48.846;9.230;2022-09-12T15:27:08;41.90;32.90
680;DHT22;322;48.846;9.230;2022-09-12T15:29:37;41.50;33.70
680;DHT22;322;48.846;9.230;2022-09-12T15:32:04;40.90;35.10
680;DHT22;322;48.846;9.230;2022-09-12T15:34:32;40.30;33.60
680;DHT22;322;48.846;9.230;2022-09-12T15:36:59;39.40;33.80
680;DHT22;322;48.846;9.230;2022-09-12T15:39:26;38.40;36.30
680;DHT22;322;48.846;9.230;2022-09-12T15:41:53;37.20;38.10
680;DHT22;322;48.846;9.230;2022-09-12T15:44:19;36.20;40.00
680;DHT22;322;48.846;9.230;2022-09-12T15:46:49;35.50;41.00
680;DHT22;322;48.846;9.230;2022-09-12T15:49:16;34.50;40.70
680;DHT22;322;48.846;9.230;2022-09-12T15:51:42;33.90;40.80
680;DHT22;322;48.846;9.230;2022-09-12T15:54:12;32.20;43.60
680;DHT22;322;48.846;9.230;2022-09-12T15:56:39;31.10;44.50
680;DHT22;322;48.846;9.230;2022-09-12T15:59:06;30.70;48.30
680;DHT22;322;48.846;9.230;2022-09-12T16:01:33;30.30;47.30
680;DHT22;322;48.846;9.230;2022-09-12T16:04:02;30.00;46.50
680;DHT22;322;48.846;9.230;2022-09-12T16:06:29;29.60;48.40
680;DHT22;322;48.846;9.230;2022-09-12T16:08:58;29.10;50.10
680;DHT22;322;48.846;9.230;2022-09-12T16:11:26;28.70;51.00
680;DHT22;322;48.846;9.230;2022-09-12T16:13:53;28.20;51.90
680;DHT22;322;48.846;9.230;2022-09-12T16:16:21;27.90;53.20
680;DHT22;322;48.846;9.230;2022-09-12T16:18:48;27.60;54.20
680;DHT22;322;48.846;9.230;2022-09-12T16:21:16;27.50;56.00
680;DHT22;322;48.846;9.230;2022-09-12T16:23:43;27.30;56.90
680;DHT22;322;48.846;9.230;2022-09-12T16:26:10;27.10;54.90
680;DHT22;322;48.846;9.230;2022-09-12T16:28:37;26.90;55.70
680;DHT22;322;48.846;9.230;2022-09-12T16:31:05;26.70;56.20
680;DHT22;322;48.846;9.230;2022-09-12T16:33:33;26.50;58.90
680;DHT22;322;48.846;9.230;2022-09-12T16:36:00;26.30;58.10
680;DHT22;322;48.846;9.230;2022-09-12T16:38:29;26.00;57.60
680;DHT22;322;48.846;9.230;2022-09-12T16:40:59;25.70;61.10
680;DHT22;322;48.846;9.230;2022-09-12T16:43:26;25.50;59.00
680;DHT22;322;48.846;9.230;2022-09-12T16:45:59;25.30;62.00
680;DHT22;322;48.846;9.230;2022-09-12T16:48:27;25.00;60.80
680;DHT22;322;48.846;9.230;2022-09-12T16:50:57;24.80;62.00
680;DHT22;322;48.846;9.230;2022-09-12T16:53:29;24.60;63.70
680;DHT22;322;48.846;9.230;2022-09-12T16:55:56;24.40;65.90
680;DHT22;322;48.846;9.230;2022-09-12T16:58:23;24.20;65.40
680;DHT22;322;48.846;9.230;2022-09-12T17:00:58;24.10;64.90
680;DHT22;322;48.846;9.230;2022-09-12T17:03:25;23.90;65.80
680;DHT22;322;48.846;9.230;2022-09-12T17:05:57;23.80;65.50
680;DHT22;322;48.846;9.230;2022-09-12T17:08:23;23.60;67.80
680;DHT22;322;48.846;9.230;2022-09-12T17:10:52;23.50;68.90
680;DHT22;322;48.846;9.230;2022-09-12T17:13:19;23.40;69.90
680;DHT22;322;48.846;9.230;2022-09-12T17:15:45;23.20;69.30
680;DHT22;322;48.846;9.230;2022-09-12T17:18:12;23.00;71.00